createdAt,value
2018-09-05T00:00:15.208Z,20.23
2018-09-05T00:02:44.518Z,22.97
2018-09-05T00:05:13.907Z,20.33
2018-09-05T00:07:43.229Z,20.30
2018-09-05T00:10:12.590Z,19.70
2018-09-05T00:12:41.807Z,19.30
2018-09-05T00:15:11.113Z,19.47
2018-09-05T00:17:40.415Z,17.50
2018-09-05T00:20:09.783Z,20.33
2018-09-05T00:22:39.094Z,22.17
2018-09-05T00:25:08.463Z,18.80
2018-09-05T00:27:37.734Z,20.80
2018-09-05T00:30:07.390Z,19.50
2018-09-05T00:32:36.650Z,21.90
2018-09-05T00:35:06.425Z,20.60
2018-09-05T00:37:35.724Z,19.37
2018-09-05T00:40:05.165Z,18.60
2018-09-05T00:42:34.486Z,20.23
2018-09-05T00:45:03.806Z,21.40
2018-09-05T00:47:33.035Z,21.30
2018-09-05T00:50:02.345Z,18.50
2018-09-05T00:52:31.715Z,21.37
2018-09-05T00:55:01.005Z,20.73
2018-09-05T00:57:30.306Z,18.53
2018-09-05T00:59:59.640Z,22.20
2018-09-05T01:02:28.902Z,20.37
2018-09-05T01:04:58.142Z,21.00
2018-09-05T01:07:28.518Z,22.20
2018-09-05T01:09:57.782Z,22.50
2018-09-05T01:12:27.085Z,20.37
2018-09-05T01:14:56.617Z,19.47
2018-09-05T01:17:25.810Z,19.80
2018-09-05T01:19:55.094Z,20.50
2018-09-05T01:22:24.345Z,20.47
2018-09-05T01:24:53.641Z,16.87
2018-09-05T01:27:22.975Z,20.07
2018-09-05T01:29:52.268Z,19.97
2018-09-05T01:32:21.613Z,19.37
2018-09-05T01:34:50.888Z,20.07
2018-09-05T01:37:20.151Z,20.23
2018-09-05T01:39:49.460Z,20.37
2018-09-05T01:42:18.803Z,19.67
2018-09-05T01:44:48.095Z,18.97
2018-09-05T01:47:17.379Z,17.00
2018-09-05T01:49:46.593Z,18.73
2018-09-05T01:52:15.931Z,17.13
2018-09-05T01:54:45.207Z,19.90
2018-09-05T01:57:14.499Z,16.30
2018-09-05T01:59:43.842Z,20.27
2018-09-05T02:02:14.175Z,19.10
2018-09-05T02:04:43.513Z,18.23
2018-09-05T02:07:12.905Z,20.30
2018-09-05T02:09:42.221Z,19.40
2018-09-05T02:12:11.466Z,18.17
2018-09-05T02:14:40.815Z,17.37
2018-09-05T02:17:10.097Z,17.53
2018-09-05T02:19:39.388Z,20.47
2018-09-05T02:22:08.772Z,15.47
2018-09-05T02:24:38.009Z,18.40
2018-09-05T02:27:07.785Z,18.07
2018-09-05T02:29:37.061Z,17.90
2018-09-05T02:32:06.403Z,17.77
2018-09-05T02:34:35.720Z,18.47
2018-09-05T02:37:04.997Z,18.70
2018-09-05T02:39:34.361Z,17.20
2018-09-05T02:42:03.658Z,18.03
2018-09-05T02:44:33.067Z,20.23
2018-09-05T02:47:02.394Z,20.47
2018-09-05T02:49:31.672Z,19.57
2018-09-05T02:52:00.982Z,16.97
2018-09-05T02:54:30.246Z,17.00
2018-09-05T02:56:59.519Z,17.53
2018-09-05T02:59:28.842Z,16.30
2018-09-05T03:01:58.246Z,17.17
2018-09-05T03:04:27.574Z,18.27
2018-09-05T03:06:56.913Z,18.10
2018-09-05T03:09:26.301Z,18.53
2018-09-05T03:11:55.526Z,17.63
2018-09-05T03:14:24.816Z,17.87
2018-09-05T03:16:54.073Z,16.80
2018-09-05T03:19:23.408Z,17.93
2018-09-05T03:21:52.738Z,14.93
2018-09-05T03:24:22.045Z,13.53
2018-09-05T03:26:51.307Z,12.87
2018-09-05T03:29:20.698Z,13.17
2018-09-05T03:31:49.997Z,12.23
2018-09-05T03:34:19.302Z,11.67
2018-09-05T03:36:48.650Z,10.47
2018-09-05T03:39:17.947Z,9.27
2018-09-05T03:41:47.397Z,9.43
2018-09-05T03:44:16.705Z,11.60
2018-09-05T03:46:45.990Z,10.43
2018-09-05T03:49:15.196Z,12.70
2018-09-05T03:51:44.517Z,11.60
2018-09-05T03:54:13.794Z,10.13
2018-09-05T03:56:43.120Z,11.25
2018-09-05T03:59:12.447Z,13.65
2018-09-05T04:01:41.658Z,12.67
2018-09-05T04:04:10.973Z,17.93
2018-09-05T04:06:40.229Z,24.70
2018-09-05T04:09:09.582Z,25.00
2018-09-05T04:11:38.890Z,19.87
2018-09-05T04:14:08.260Z,26.97
2018-09-05T04:16:37.706Z,22.80
2018-09-05T04:19:06.942Z,18.53
2018-09-05T04:21:36.227Z,22.90
2018-09-05T04:24:05.546Z,20.53
2018-09-05T04:26:34.815Z,23.60
2018-09-05T04:29:04.139Z,21.10
2018-09-05T04:31:33.460Z,21.00
2018-09-05T04:34:02.764Z,24.63
2018-09-05T04:36:32.131Z,18.00
2018-09-05T04:39:01.488Z,21.40
2018-09-05T04:41:30.884Z,24.63
2018-09-05T04:44:00.178Z,20.37
2018-09-05T04:46:30.190Z,18.37
2018-09-05T04:48:59.447Z,18.47
2018-09-05T04:51:28.737Z,17.37
2018-09-05T04:53:58.082Z,16.60
2018-09-05T04:56:27.406Z,20.87
2018-09-05T04:58:56.810Z,18.43
2018-09-05T05:01:26.227Z,17.00
2018-09-05T05:03:55.596Z,18.57
2018-09-05T05:06:24.863Z,17.07
2018-09-05T05:08:54.229Z,14.87
2018-09-05T05:11:23.491Z,16.40
2018-09-05T05:13:52.766Z,15.57
2018-09-05T05:16:22.126Z,15.03
2018-09-05T05:18:51.405Z,17.53
2018-09-05T05:21:20.739Z,16.17
2018-09-05T05:23:50.093Z,18.27
2018-09-05T05:26:19.404Z,16.00
2018-09-05T05:28:48.636Z,16.07
2018-09-05T05:31:17.864Z,14.57
2018-09-05T05:33:47.473Z,15.57
2018-09-05T05:36:17.281Z,14.60
2018-09-05T05:38:47.074Z,14.97
2018-09-05T05:41:16.544Z,14.60
2018-09-05T05:43:45.855Z,14.73
2018-09-05T05:46:15.189Z,15.47
2018-09-05T05:48:44.465Z,15.93
2018-09-05T05:51:13.799Z,15.23
2018-09-05T05:53:43.079Z,16.70
2018-09-05T05:56:12.380Z,16.83
2018-09-05T05:58:41.767Z,17.10
2018-09-05T06:01:11.123Z,18.13
2018-09-05T06:03:40.456Z,18.77
2018-09-05T06:06:09.857Z,17.00
2018-09-05T06:08:39.115Z,17.37
2018-09-05T06:11:08.458Z,17.87
2018-09-05T06:13:37.739Z,18.53
2018-09-05T06:16:07.037Z,17.67
2018-09-05T06:18:36.345Z,17.73
2018-09-05T06:21:05.770Z,16.63
2018-09-05T06:23:35.091Z,16.83
2018-09-05T06:26:04.473Z,16.93
2018-09-05T06:28:33.736Z,15.43
2018-09-05T06:31:03.255Z,13.07
2018-09-05T06:33:32.695Z,14.70
2018-09-05T06:36:01.914Z,15.60
2018-09-05T06:38:31.253Z,15.77
2018-09-05T06:41:00.578Z,14.33
2018-09-05T06:43:29.913Z,15.17
2018-09-05T06:45:59.212Z,14.83
2018-09-05T06:48:28.450Z,14.90
2018-09-05T06:51:06.023Z,14.17
2018-09-05T06:53:36.419Z,13.97
2018-09-05T06:56:05.869Z,12.70
2018-09-05T06:58:36.062Z,14.33
2018-09-05T07:01:05.491Z,14.77
2018-09-05T07:03:35.017Z,15.70
2018-09-05T07:06:04.216Z,16.30
2018-09-05T07:08:33.558Z,17.43
2018-09-05T07:11:02.853Z,20.50
2018-09-05T07:13:32.163Z,17.27
2018-09-05T07:16:01.508Z,16.17
2018-09-05T07:18:30.967Z,16.23
2018-09-05T07:21:05.677Z,15.80
2018-09-05T07:23:29.597Z,16.23
2018-09-05T07:25:58.928Z,15.60
2018-09-05T07:28:28.271Z,15.30
2018-09-05T07:30:57.732Z,14.90
2018-09-05T07:33:27.137Z,16.23
2018-09-05T07:35:56.774Z,17.07
2018-09-05T07:38:26.088Z,14.70
2018-09-05T07:40:55.566Z,16.40
2018-09-05T07:43:24.954Z,14.50
2018-09-05T07:45:54.337Z,14.67
2018-09-05T07:48:23.786Z,14.47
2018-09-05T07:50:53.310Z,18.87
2018-09-05T07:53:22.569Z,15.67
2018-09-05T07:55:51.794Z,14.40
2018-09-05T07:58:21.175Z,14.60
2018-09-05T08:00:50.522Z,15.73
2018-09-05T08:03:19.867Z,14.33
2018-09-05T08:05:49.178Z,15.30
2018-09-05T08:08:18.553Z,16.00
2018-09-05T08:10:47.874Z,16.03
2018-09-05T08:13:17.213Z,14.03
2018-09-05T08:15:46.587Z,14.13
2018-09-05T08:18:15.882Z,15.17
2018-09-05T08:20:45.641Z,13.93
2018-09-05T08:23:15.151Z,16.07
2018-09-05T08:25:43.917Z,15.10
2018-09-05T08:28:13.198Z,13.80
2018-09-05T08:30:42.562Z,13.97
2018-09-05T08:33:11.842Z,12.80
2018-09-05T08:35:41.598Z,14.47
2018-09-05T08:38:10.771Z,13.73
2018-09-05T08:40:40.048Z,14.23
2018-09-05T08:43:09.354Z,12.10
2018-09-05T08:45:38.851Z,12.27
2018-09-05T08:48:08.118Z,12.67
2018-09-05T08:50:37.516Z,12.03
2018-09-05T08:53:06.903Z,11.80
2018-09-05T08:55:36.265Z,13.53
2018-09-05T08:58:05.570Z,11.73
2018-09-05T09:00:34.810Z,11.70
2018-09-05T09:03:04.241Z,11.87
2018-09-05T09:05:33.495Z,12.40
2018-09-05T09:08:02.808Z,12.77
2018-09-05T09:10:32.099Z,12.07
2018-09-05T09:13:01.487Z,14.03
2018-09-05T09:15:30.924Z,11.33
2018-09-05T09:18:00.251Z,13.23
2018-09-05T09:20:29.612Z,12.60
2018-09-05T09:22:58.881Z,13.80
2018-09-05T09:25:28.148Z,13.60
2018-09-05T09:27:57.396Z,13.27
2018-09-05T09:30:26.705Z,13.27
2018-09-05T09:32:55.935Z,11.83
2018-09-05T09:35:25.266Z,12.60
2018-09-05T09:37:54.462Z,11.30
2018-09-05T09:40:23.715Z,12.07
2018-09-05T09:42:53.006Z,12.37
2018-09-05T09:45:22.331Z,13.40
2018-09-05T09:47:51.567Z,14.17
2018-09-05T09:50:20.874Z,12.93
2018-09-05T09:52:50.167Z,13.00
2018-09-05T09:55:19.515Z,13.27
2018-09-05T09:57:48.818Z,13.33
2018-09-05T10:00:23.169Z,13.33
2018-09-05T10:02:57.587Z,13.07
2018-09-05T10:05:31.863Z,13.27
2018-09-05T10:08:06.360Z,13.63
2018-09-05T10:10:40.945Z,13.23
2018-09-05T10:13:13.173Z,13.17
2018-09-05T10:15:47.367Z,12.93
2018-09-05T10:18:21.528Z,14.27
2018-09-05T10:20:50.564Z,12.90
2018-09-05T10:23:19.693Z,12.87
2018-09-05T10:25:48.670Z,13.20
2018-09-05T10:28:17.905Z,12.90
2018-09-05T10:30:47.033Z,14.40
2018-09-05T10:33:16.056Z,13.27
2018-09-05T10:35:45.086Z,12.93
2018-09-05T10:38:14.078Z,12.07
2018-09-05T10:40:43.136Z,13.07
2018-09-05T10:43:12.153Z,12.60
2018-09-05T10:45:41.317Z,13.27
2018-09-05T10:48:10.450Z,13.27
2018-09-05T10:50:39.471Z,11.90
2018-09-05T10:53:08.590Z,14.10
2018-09-05T10:55:41.526Z,12.43
2018-09-05T10:58:10.598Z,12.33
2018-09-05T11:00:39.628Z,13.83
2018-09-05T11:03:09.003Z,12.43
2018-09-05T11:05:38.073Z,13.80
2018-09-05T11:08:07.281Z,10.97
2018-09-05T11:10:36.388Z,11.33
2018-09-05T11:13:05.384Z,11.73
2018-09-05T11:15:34.367Z,10.33
2018-09-05T11:18:03.445Z,11.07
2018-09-05T11:20:42.593Z,12.10
2018-09-05T11:23:11.618Z,13.47
2018-09-05T11:25:40.634Z,12.20
2018-09-05T11:28:09.629Z,12.70
2018-09-05T11:30:38.677Z,11.87
2018-09-05T11:33:07.677Z,11.60
2018-09-05T11:35:36.761Z,10.20
2018-09-05T11:38:05.937Z,11.27
2018-09-05T11:40:35.088Z,9.77
2018-09-05T11:43:04.362Z,10.20
2018-09-05T11:45:33.468Z,11.20
2018-09-05T11:48:02.656Z,10.57
2018-09-05T11:50:31.688Z,10.80
2018-09-05T11:53:00.672Z,10.03
2018-09-05T11:55:29.730Z,11.57
2018-09-05T11:57:58.817Z,9.53
2018-09-05T12:00:27.869Z,10.77
2018-09-05T12:02:56.928Z,10.67
2018-09-05T12:05:26.029Z,10.57
2018-09-05T12:07:55.046Z,10.50
2018-09-05T12:10:24.097Z,10.53
2018-09-05T12:12:53.139Z,11.00
2018-09-05T12:15:22.149Z,10.33
2018-09-05T12:17:51.145Z,14.83
2018-09-05T12:20:20.157Z,11.23
2018-09-05T12:22:49.137Z,10.33
2018-09-05T12:25:18.169Z,10.60
2018-09-05T12:27:47.308Z,11.43
2018-09-05T12:30:16.304Z,10.00
2018-09-05T12:32:45.339Z,10.67
2018-09-05T12:35:14.330Z,10.97
2018-09-05T12:37:43.378Z,10.73
2018-09-05T12:40:12.420Z,9.90
2018-09-05T12:42:41.413Z,9.63
2018-09-05T12:45:10.646Z,10.37
2018-09-05T12:47:39.631Z,10.20
2018-09-05T12:50:08.703Z,10.93
2018-09-05T12:52:37.734Z,10.08
2018-09-05T12:55:06.825Z,10.90
2018-09-05T12:57:35.913Z,10.30
2018-09-05T13:00:05.110Z,10.32
2018-09-05T13:02:34.187Z,10.48
2018-09-05T13:05:03.328Z,11.12
2018-09-05T13:07:32.314Z,10.53
2018-09-05T13:10:01.369Z,10.00
2018-09-05T13:12:30.373Z,8.68
2018-09-05T13:14:59.404Z,10.70
2018-09-05T13:17:28.436Z,9.98
2018-09-05T13:19:57.457Z,9.80
2018-09-05T13:22:26.624Z,11.28
2018-09-05T13:24:55.646Z,10.35
2018-09-05T13:27:24.691Z,10.28
2018-09-05T13:29:53.909Z,10.10
2018-09-05T13:32:22.925Z,9.78
2018-09-05T13:34:51.986Z,13.83
2018-09-05T13:37:20.994Z,10.50
2018-09-05T13:39:50.042Z,9.75
2018-09-05T13:42:19.090Z,8.95
2018-09-05T13:44:48.094Z,9.68
2018-09-05T13:47:17.120Z,12.10
2018-09-05T13:49:46.156Z,9.78
2018-09-05T13:52:18.365Z,9.55
2018-09-05T13:54:47.413Z,10.00
2018-09-05T13:57:16.500Z,10.00
2018-09-05T13:59:45.761Z,10.75
2018-09-05T14:02:14.769Z,9.70
2018-09-05T14:04:43.805Z,9.83
2018-09-05T14:07:12.841Z,9.65
2018-09-05T14:09:41.869Z,9.45
2018-09-05T14:12:10.933Z,9.90
2018-09-05T14:14:39.941Z,10.15
2018-09-05T14:17:08.985Z,9.58
2018-09-05T14:19:38.020Z,9.00
2018-09-05T14:22:07.119Z,8.83
2018-09-05T14:24:36.285Z,9.53
2018-09-05T14:27:05.306Z,8.83
2018-09-05T14:29:34.382Z,9.98
2018-09-05T14:32:03.415Z,9.15
2018-09-05T14:34:32.436Z,8.53
2018-09-05T14:37:01.482Z,9.18
2018-09-05T14:39:30.507Z,9.85
2018-09-05T14:41:59.537Z,9.73
2018-09-05T14:44:28.590Z,10.60
2018-09-05T14:46:57.606Z,9.10
2018-09-05T14:49:26.707Z,10.00
2018-09-05T14:51:55.741Z,8.70
2018-09-05T14:54:24.818Z,7.95
2018-09-05T14:56:53.897Z,8.78
2018-09-05T14:59:22.947Z,10.32
2018-09-05T15:01:52.108Z,8.30
2018-09-05T15:04:21.162Z,14.43
2018-09-05T15:06:50.397Z,10.13
2018-09-05T15:09:19.452Z,9.00
2018-09-05T15:11:48.458Z,8.60
2018-09-05T15:14:17.533Z,10.20
2018-09-05T15:16:46.629Z,8.65
2018-09-05T15:19:15.658Z,9.65
2018-09-05T15:21:44.780Z,8.15
2018-09-05T15:24:13.821Z,8.35
2018-09-05T15:26:42.890Z,8.83
2018-09-05T15:29:11.881Z,8.20
2018-09-05T15:31:42.661Z,8.98
2018-09-05T15:34:11.796Z,9.18
2018-09-05T15:36:40.802Z,8.35
2018-09-05T15:39:10.810Z,8.90
2018-09-05T15:41:39.872Z,8.25
2018-09-05T15:44:09.062Z,8.78
2018-09-05T15:46:38.168Z,9.90
2018-09-05T15:49:07.550Z,9.58
2018-09-05T15:51:36.603Z,8.28
2018-09-05T15:54:05.710Z,8.18
2018-09-05T15:56:34.751Z,8.13
2018-09-05T15:59:03.926Z,10.00
2018-09-05T16:01:33.198Z,8.18
2018-09-05T16:04:02.270Z,8.45
2018-09-05T16:06:31.296Z,8.63
2018-09-05T16:09:00.352Z,8.00
2018-09-05T16:11:29.391Z,8.83
2018-09-05T16:13:58.402Z,8.43
2018-09-05T16:16:27.432Z,8.18
2018-09-05T16:18:56.433Z,8.05
2018-09-05T16:21:25.492Z,8.13
2018-09-05T16:23:54.537Z,7.72
2018-09-05T16:26:23.597Z,9.35
2018-09-05T16:28:52.645Z,8.48
2018-09-05T16:31:21.657Z,7.92
2018-09-05T16:33:50.708Z,7.65
2018-09-05T16:36:19.892Z,7.30
2018-09-05T16:38:50.220Z,8.30
2018-09-05T16:41:19.525Z,8.73
2018-09-05T16:43:48.588Z,8.30
2018-09-05T16:46:17.695Z,10.20
2018-09-05T16:48:46.736Z,7.65
2018-09-05T16:51:15.770Z,7.72
2018-09-05T16:53:44.826Z,8.13
2018-09-05T16:56:13.977Z,6.83
2018-09-05T16:58:43.021Z,8.15
2018-09-05T17:01:12.047Z,8.28
2018-09-05T17:03:41.106Z,7.67
2018-09-05T17:06:10.237Z,8.23
2018-09-05T17:08:39.292Z,8.35
2018-09-05T17:11:08.495Z,7.50
2018-09-05T17:13:37.513Z,8.33
2018-09-05T17:16:06.574Z,8.40
2018-09-05T17:18:35.617Z,8.05
2018-09-05T17:21:04.649Z,7.90
2018-09-05T17:23:38.509Z,8.30
2018-09-05T17:26:07.613Z,7.75
2018-09-05T17:28:36.814Z,7.97
2018-09-05T17:31:05.849Z,7.53
2018-09-05T17:33:34.840Z,9.00
2018-09-05T17:36:03.910Z,9.40
2018-09-05T17:38:33.038Z,8.27
2018-09-05T17:41:02.093Z,8.60
2018-09-05T17:43:31.145Z,9.57
2018-09-05T17:46:00.219Z,8.37
2018-09-05T17:48:29.270Z,8.17
2018-09-05T17:50:58.258Z,9.30
2018-09-05T17:53:27.295Z,8.77
2018-09-05T17:55:56.285Z,8.37
2018-09-05T17:58:24.865Z,10.27
2018-09-05T18:00:54.000Z,8.87
2018-09-05T18:03:23.142Z,8.90
2018-09-05T18:05:52.134Z,8.50
2018-09-05T18:08:21.502Z,9.03
2018-09-05T18:10:50.830Z,10.17
2018-09-05T18:13:20.182Z,9.27
2018-09-05T18:15:49.522Z,8.23
2018-09-05T18:18:18.718Z,9.00
2018-09-05T18:20:47.946Z,9.13
2018-09-05T18:23:17.228Z,11.47
2018-09-05T18:25:46.483Z,9.73
2018-09-05T18:28:15.779Z,9.37
2018-09-05T18:30:45.096Z,10.23
2018-09-05T18:33:14.450Z,9.60
2018-09-05T18:35:43.712Z,8.67
2018-09-05T18:38:13.051Z,9.37
2018-09-05T18:40:42.509Z,9.87
2018-09-05T18:43:11.776Z,10.20
2018-09-05T18:45:41.104Z,9.83
2018-09-05T18:48:10.683Z,10.23
2018-09-05T18:50:39.978Z,9.73
2018-09-05T18:53:13.369Z,9.63
2018-09-05T18:55:44.916Z,9.27
2018-09-05T18:58:14.178Z,10.77
2018-09-05T19:00:43.564Z,9.93
2018-09-05T19:03:12.838Z,10.00
2018-09-05T19:05:42.114Z,11.83
2018-09-05T19:08:11.463Z,10.07
2018-09-05T19:10:40.743Z,11.40
2018-09-05T19:13:10.225Z,10.03
2018-09-05T19:15:39.626Z,12.40
2018-09-05T19:18:11.269Z,9.03
2018-09-05T19:20:40.875Z,10.47
2018-09-05T19:23:10.181Z,9.33
2018-09-05T19:25:39.377Z,10.20
2018-09-05T19:28:08.655Z,9.70
2018-09-05T19:30:38.191Z,10.95
2018-09-05T19:33:07.460Z,9.70
2018-09-05T19:35:36.755Z,10.80
2018-09-05T19:38:06.087Z,12.83
2018-09-05T19:40:35.420Z,11.10
2018-09-05T19:43:04.791Z,11.93
2018-09-05T19:45:34.052Z,11.53
2018-09-05T19:48:03.393Z,11.13
2018-09-05T19:50:32.715Z,11.27
2018-09-05T19:53:02.103Z,11.37
2018-09-05T19:55:31.403Z,10.73
2018-09-05T19:58:00.641Z,10.13
2018-09-05T20:00:30.007Z,10.53
2018-09-05T20:02:59.430Z,11.00
2018-09-05T20:05:28.851Z,10.47
2018-09-05T20:07:58.270Z,10.90
2018-09-05T20:10:27.643Z,11.00
2018-09-05T20:12:56.976Z,11.70
2018-09-05T20:15:26.229Z,10.67
2018-09-05T20:17:57.172Z,11.10
2018-09-05T20:20:26.446Z,13.10
2018-09-05T20:22:55.782Z,10.30
2018-09-05T20:25:25.109Z,10.90
2018-09-05T20:27:54.479Z,10.50
2018-09-05T20:30:23.832Z,11.23
2018-09-05T20:32:53.172Z,10.63
2018-09-05T20:35:22.557Z,11.37
2018-09-05T20:37:51.883Z,11.47
2018-09-05T20:40:22.419Z,11.33
2018-09-05T20:42:51.980Z,10.80
2018-09-05T20:45:30.851Z,11.60
2018-09-05T20:48:00.197Z,11.23
2018-09-05T20:50:29.581Z,11.60
2018-09-05T20:52:59.030Z,12.33
2018-09-05T20:55:28.326Z,11.97
2018-09-05T20:57:57.640Z,13.20
2018-09-05T21:00:26.930Z,13.63
2018-09-05T21:02:56.237Z,11.97
2018-09-05T21:05:25.478Z,12.93
2018-09-05T21:07:54.790Z,11.07
2018-09-05T21:10:24.254Z,13.10
2018-09-05T21:12:53.464Z,11.93
2018-09-05T21:15:22.855Z,11.67
2018-09-05T21:17:52.168Z,13.10
2018-09-05T21:20:21.515Z,14.17
2018-09-05T21:22:54.767Z,11.17
2018-09-05T21:25:24.126Z,11.97
2018-09-05T21:27:57.199Z,13.20
2018-09-05T21:30:26.494Z,11.27
2018-09-05T21:32:55.824Z,14.17
2018-09-05T21:35:25.149Z,11.30
2018-09-05T21:37:54.415Z,13.33
2018-09-05T21:40:23.671Z,13.33
2018-09-05T21:42:53.062Z,13.30
2018-09-05T21:45:22.376Z,12.30
2018-09-05T21:47:51.611Z,12.60
2018-09-05T21:50:20.942Z,13.50
2018-09-05T21:52:50.265Z,12.37
2018-09-05T21:55:19.574Z,12.47
2018-09-05T21:57:48.903Z,12.47
2018-09-05T22:00:18.166Z,14.40
2018-09-05T22:02:47.470Z,13.17
2018-09-05T22:05:16.806Z,13.60
2018-09-05T22:07:46.076Z,14.37
2018-09-05T22:10:15.371Z,13.53
2018-09-05T22:12:44.683Z,13.73
2018-09-05T22:15:14.082Z,14.07
2018-09-05T22:17:43.323Z,14.17
2018-09-05T22:20:12.790Z,16.50
2018-09-05T22:22:42.126Z,13.73
2018-09-05T22:25:11.551Z,15.40
2018-09-05T22:27:40.969Z,13.60
2018-09-05T22:30:09.777Z,15.00
2018-09-05T22:32:39.067Z,13.47
2018-09-05T22:35:08.361Z,13.40
2018-09-05T22:37:37.725Z,14.20
2018-09-05T22:40:07.038Z,15.00
2018-09-05T22:42:37.394Z,15.53
2018-09-05T22:45:17.546Z,14.43
2018-09-05T22:48:03.003Z,14.23
2018-09-05T22:51:14.574Z,12.57
2018-09-05T22:58:10.700Z,15.80
2018-09-05T23:01:55.437Z,17.00
2018-09-05T23:06:11.637Z,13.57
2018-09-05T23:08:44.043Z,17.67
2018-09-05T23:11:30.995Z,14.50
2018-09-05T23:14:11.700Z,14.60
2018-09-05T23:17:54.374Z,13.90
2018-09-05T23:20:37.468Z,15.50
2018-09-05T23:23:17.619Z,16.27
2018-09-05T23:25:46.935Z,14.17
2018-09-05T23:28:16.142Z,20.23
2018-09-05T23:30:45.447Z,13.83
2018-09-05T23:33:14.753Z,12.83
2018-09-05T23:35:44.082Z,14.63
2018-09-05T23:38:13.372Z,14.60
2018-09-05T23:40:42.632Z,14.23
2018-09-05T23:43:11.912Z,14.00
2018-09-05T23:45:41.246Z,15.03
2018-09-05T23:48:10.584Z,15.53
2018-09-05T23:50:39.866Z,16.80
2018-09-05T23:53:09.159Z,16.40
2018-09-05T23:55:38.673Z,14.07
2018-09-05T23:58:08.004Z,16.17
